createdAt,value
2018-08-03T00:00:43.043Z,85.07
2018-08-03T00:03:12.864Z,85.09
2018-08-03T00:05:42.618Z,85.19
2018-08-03T00:08:12.717Z,84.59
2018-08-03T00:10:42.374Z,84.03
2018-08-03T00:13:11.969Z,83.93
2018-08-03T00:15:41.572Z,83.68
2018-08-03T00:18:11.438Z,83.45
2018-08-03T00:20:41.093Z,83.29
2018-08-03T00:23:10.891Z,83.29
2018-08-03T00:25:40.847Z,83.34
2018-08-03T00:28:10.598Z,83.58
2018-08-03T00:30:40.615Z,82.82
2018-08-03T00:33:10.426Z,82.64
2018-08-03T00:35:40.450Z,83.54
2018-08-03T00:38:10.319Z,83.41
2018-08-03T00:40:39.829Z,82.92
2018-08-03T00:43:09.549Z,83.32
2018-08-03T00:45:39.222Z,83.45
2018-08-03T00:48:09.302Z,84.31
2018-08-03T00:50:39.031Z,84.48
2018-08-03T00:53:08.710Z,84.32
2018-08-03T00:55:38.615Z,84.36
2018-08-03T00:58:08.424Z,84.70
2018-08-03T01:00:38.155Z,84.93
2018-08-03T01:03:08.407Z,84.89
2018-08-03T01:05:38.302Z,85.18
2018-08-03T01:08:08.323Z,85.74
2018-08-03T01:10:38.251Z,85.64
2018-08-03T01:13:07.838Z,85.25
2018-08-03T01:15:37.546Z,85.31
2018-08-03T01:18:07.332Z,85.32
2018-08-03T01:20:36.845Z,85.33
2018-08-03T01:23:06.592Z,85.66
2018-08-03T01:25:36.563Z,85.62
2018-08-03T01:28:06.662Z,85.55
2018-08-03T01:30:36.633Z,85.42
2018-08-03T01:33:06.447Z,85.04
2018-08-03T01:35:36.310Z,85.33
2018-08-03T01:38:06.392Z,85.34
2018-08-03T01:40:36.063Z,84.97
2018-08-03T01:43:05.685Z,85.48
2018-08-03T01:45:35.305Z,85.19
2018-08-03T01:48:05.036Z,85.26
2018-08-03T01:50:34.715Z,85.35
2018-08-03T01:53:04.578Z,84.79
2018-08-03T01:55:34.435Z,84.87
2018-08-03T01:58:04.322Z,85.23
2018-08-03T02:00:34.282Z,85.24
2018-08-03T02:03:04.055Z,84.88
2018-08-03T02:05:33.662Z,83.84
2018-08-03T02:08:03.390Z,83.44
2018-08-03T02:10:33.494Z,83.18
2018-08-03T02:13:03.244Z,83.53
2018-08-03T02:15:32.839Z,83.42
2018-08-03T02:18:02.870Z,83.48
2018-08-03T02:20:32.706Z,83.37
2018-08-03T02:23:02.330Z,83.66
2018-08-03T02:25:32.230Z,83.55
2018-08-03T02:28:01.743Z,83.69
2018-08-03T02:30:31.754Z,84.61
2018-08-03T02:33:01.329Z,84.46
2018-08-03T02:35:30.982Z,84.25
2018-08-03T02:38:00.636Z,84.94
2018-08-03T02:40:30.200Z,84.89
2018-08-03T02:42:59.915Z,85.42
2018-08-03T02:45:29.502Z,85.15
2018-08-03T02:47:59.384Z,85.06
2018-08-03T02:50:29.333Z,84.86
2018-08-03T02:52:59.011Z,85.51
2018-08-03T02:55:28.654Z,86.09
2018-08-03T02:57:58.319Z,85.76
2018-08-03T03:00:28.080Z,85.00
2018-08-03T03:02:57.700Z,83.49
2018-08-03T03:05:27.494Z,83.46
2018-08-03T03:07:57.336Z,83.60
2018-08-03T03:10:26.849Z,83.65
2018-08-03T03:12:56.358Z,84.46
2018-08-03T03:15:26.034Z,84.73
2018-08-03T03:17:55.867Z,84.83
2018-08-03T03:20:25.932Z,84.33
2018-08-03T03:22:55.787Z,84.71
2018-08-03T03:25:25.739Z,85.04
2018-08-03T03:27:55.406Z,85.90
2018-08-03T03:30:25.405Z,86.56
2018-08-03T03:32:55.512Z,86.67
2018-08-03T03:35:25.323Z,86.68
2018-08-03T03:37:55.149Z,87.05
2018-08-03T03:40:24.800Z,86.25
2018-08-03T03:42:54.468Z,86.19
2018-08-03T03:45:24.119Z,85.65
2018-08-03T03:47:53.818Z,85.91
2018-08-03T03:50:23.897Z,85.30
2018-08-03T03:52:53.783Z,85.20
2018-08-03T03:55:23.671Z,85.24
2018-08-03T03:57:53.381Z,85.27
2018-08-03T04:00:23.095Z,85.36
2018-08-03T04:02:52.958Z,85.38
2018-08-03T04:05:22.686Z,86.05
2018-08-03T04:07:52.647Z,85.72
2018-08-03T04:10:22.096Z,85.03
2018-08-03T04:12:51.622Z,84.89
2018-08-03T04:15:21.354Z,84.86
2018-08-03T04:17:51.110Z,84.56
2018-08-03T04:20:21.164Z,84.58
2018-08-03T04:22:51.203Z,84.32
2018-08-03T04:25:20.881Z,84.05
2018-08-03T04:27:50.613Z,83.86
2018-08-03T04:30:20.648Z,83.87
2018-08-03T04:32:50.462Z,83.82
2018-08-03T04:35:20.059Z,83.09
2018-08-03T04:37:49.834Z,83.57
2018-08-03T04:40:19.671Z,84.01
2018-08-03T04:42:49.411Z,83.74
2018-08-03T04:45:19.375Z,83.69
2018-08-03T04:47:49.842Z,83.17
2018-08-03T04:50:19.902Z,82.59
2018-08-03T04:52:49.931Z,81.65
2018-08-03T04:55:19.894Z,80.96
2018-08-03T04:57:49.666Z,80.28
2018-08-03T05:00:19.495Z,77.96
2018-08-03T05:02:49.294Z,77.69
2018-08-03T05:05:19.054Z,78.24
2018-08-03T05:07:48.759Z,77.14
2018-08-03T05:10:18.411Z,77.36
2018-08-03T05:12:48.123Z,77.81
2018-08-03T05:15:17.786Z,78.54
2018-08-03T05:17:47.713Z,77.87
2018-08-03T05:20:17.686Z,76.20
2018-08-03T05:22:47.708Z,76.35
2018-08-03T05:25:17.442Z,76.53
2018-08-03T05:27:47.203Z,76.45
2018-08-03T05:30:17.274Z,75.96
2018-08-03T05:32:46.859Z,76.47
2018-08-03T05:35:16.794Z,75.04
2018-08-03T05:37:46.423Z,74.52
2018-08-03T05:40:16.303Z,74.85
2018-08-03T05:42:45.886Z,73.94
2018-08-03T05:45:15.655Z,73.73
2018-08-03T05:47:45.731Z,71.72
2018-08-03T05:50:15.663Z,71.86
2018-08-03T05:52:45.395Z,70.92
2018-08-03T05:55:15.366Z,70.68
2018-08-03T05:57:45.230Z,68.66
2018-08-03T06:00:14.924Z,68.04
2018-08-03T06:02:44.568Z,66.37
2018-08-03T06:05:14.479Z,66.25
2018-08-03T06:07:44.226Z,64.30
2018-08-03T06:10:13.890Z,64.75
2018-08-03T06:12:44.003Z,62.55
2018-08-03T06:15:14.097Z,61.41
2018-08-03T06:17:43.851Z,60.50
2018-08-03T06:20:14.105Z,59.81
2018-08-03T06:22:43.702Z,60.02
2018-08-03T06:25:13.680Z,59.47
2018-08-03T06:27:43.627Z,60.08
2018-08-03T06:30:13.615Z,60.36
2018-08-03T06:32:43.610Z,58.70
2018-08-03T06:35:13.554Z,60.00
2018-08-03T06:37:43.459Z,58.15
2018-08-03T06:40:13.178Z,59.10
2018-08-03T06:42:42.852Z,59.00
2018-08-03T06:45:12.650Z,59.36
2018-08-03T06:47:42.515Z,58.19
2018-08-03T06:50:12.531Z,58.59
2018-08-03T06:52:42.515Z,58.73
2018-08-03T06:55:12.162Z,58.32
2018-08-03T06:57:41.690Z,57.10
2018-08-03T07:00:11.343Z,57.36
2018-08-03T07:02:41.177Z,56.96
2018-08-03T07:05:11.316Z,57.81
2018-08-03T07:07:40.974Z,56.89
2018-08-03T07:10:11.298Z,56.80
2018-08-03T07:12:41.067Z,55.48
2018-08-03T07:15:10.593Z,55.20
2018-08-03T07:17:40.458Z,53.53
2018-08-03T07:20:10.451Z,54.77
2018-08-03T07:22:40.276Z,54.17
2018-08-03T07:25:09.963Z,52.89
2018-08-03T07:27:39.645Z,52.93
2018-08-03T07:30:09.223Z,50.24
2018-08-03T07:32:38.830Z,51.67
2018-08-03T07:35:08.623Z,51.78
2018-08-03T07:37:38.406Z,51.30
2018-08-03T07:40:08.248Z,50.47
2018-08-03T07:42:38.146Z,49.94
2018-08-03T07:45:08.065Z,50.15
2018-08-03T07:47:37.878Z,49.44
2018-08-03T07:50:07.935Z,49.82
2018-08-03T07:52:37.604Z,49.51
2018-08-03T07:55:07.588Z,49.39
2018-08-03T07:57:37.379Z,49.96
2018-08-03T08:00:07.594Z,47.85
2018-08-03T08:02:37.218Z,46.80
2018-08-03T08:05:07.138Z,47.51
2018-08-03T08:07:36.620Z,47.51
2018-08-03T08:10:06.450Z,47.49
2018-08-03T08:12:36.170Z,49.13
2018-08-03T08:15:06.626Z,49.20
2018-08-03T08:17:36.606Z,50.03
2018-08-03T08:20:06.259Z,50.13
2018-08-03T08:22:36.135Z,51.09
2018-08-03T08:25:05.912Z,50.99
2018-08-03T08:27:35.652Z,49.96
2018-08-03T08:30:06.192Z,50.22
2018-08-03T08:32:35.844Z,50.79
2018-08-03T08:35:05.728Z,51.41
2018-08-03T08:37:35.435Z,51.47
2018-08-03T08:40:05.384Z,50.73
2018-08-03T08:42:35.054Z,50.64
2018-08-03T08:45:05.321Z,49.69
2018-08-03T08:47:35.194Z,48.85
2018-08-03T08:50:05.897Z,49.42
2018-08-03T08:52:35.610Z,49.84
2018-08-03T08:55:05.258Z,49.43
2018-08-03T08:57:34.868Z,48.05
2018-08-03T09:00:05.275Z,47.82
2018-08-03T09:02:35.412Z,48.64
2018-08-03T09:05:05.187Z,47.48
2018-08-03T09:07:35.015Z,47.90
2018-08-03T09:10:04.729Z,46.07
2018-08-03T09:12:34.387Z,45.15
2018-08-03T09:15:04.529Z,45.83
2018-08-03T09:17:34.330Z,43.70
2018-08-03T09:20:04.579Z,42.32
2018-08-03T09:22:34.281Z,43.03
2018-08-03T09:25:03.979Z,43.25
2018-08-03T09:27:33.578Z,44.55
2018-08-03T09:30:03.596Z,43.73
2018-08-03T09:32:33.462Z,42.40
2018-08-03T09:35:03.414Z,45.13
2018-08-03T09:37:33.259Z,41.24
2018-08-03T09:40:03.121Z,42.26
2018-08-03T09:42:33.021Z,40.86
2018-08-03T09:45:02.623Z,41.13
2018-08-03T09:47:32.271Z,40.72
2018-08-03T09:50:01.857Z,39.67
2018-08-03T09:52:31.743Z,41.36
2018-08-03T09:55:01.650Z,39.17
2018-08-03T09:57:31.174Z,39.06
2018-08-03T10:00:01.135Z,40.07
2018-08-03T10:02:31.011Z,37.82
2018-08-03T10:05:00.848Z,35.48
2018-08-03T10:07:30.719Z,35.77
2018-08-03T10:10:00.747Z,34.81
2018-08-03T10:12:30.374Z,37.25
2018-08-03T10:15:00.052Z,35.98
2018-08-03T10:17:29.750Z,34.99
2018-08-03T10:19:59.370Z,33.97
2018-08-03T10:22:29.021Z,32.90
2018-08-03T10:24:58.711Z,33.59
2018-08-03T10:27:28.542Z,33.86
2018-08-03T10:29:58.317Z,32.19
2018-08-03T10:32:28.079Z,31.85
2018-08-03T10:34:58.113Z,31.65
2018-08-03T10:37:27.943Z,31.19
2018-08-03T10:39:58.014Z,30.20
2018-08-03T10:42:28.106Z,31.28
2018-08-03T10:44:57.946Z,30.41
2018-08-03T10:47:27.820Z,30.29
2018-08-03T10:49:57.422Z,29.82
2018-08-03T10:52:27.067Z,29.91
2018-08-03T10:54:56.777Z,30.07
2018-08-03T10:57:26.450Z,30.48
2018-08-03T10:59:56.264Z,29.52
2018-08-03T11:02:26.257Z,29.34
2018-08-03T11:04:56.007Z,29.21
2018-08-03T11:07:25.619Z,28.98
2018-08-03T11:09:55.584Z,30.64
2018-08-03T11:12:25.178Z,31.16
2018-08-03T11:14:54.966Z,30.12
2018-08-03T11:17:24.953Z,29.73
2018-08-03T11:22:38.017Z,28.97
2018-08-03T11:25:08.455Z,28.90
2018-08-03T11:27:38.172Z,28.50
2018-08-03T11:30:08.934Z,27.64
2018-08-03T11:32:38.907Z,29.25
2018-08-03T11:35:09.705Z,27.87
2018-08-03T11:37:39.455Z,28.70
2018-08-03T11:40:09.642Z,28.46
2018-08-03T11:42:39.380Z,29.13
2018-08-03T11:45:10.314Z,28.26
2018-08-03T11:47:40.059Z,28.65
2018-08-03T11:50:11.003Z,29.11
2018-08-03T11:52:40.690Z,28.96
2018-08-03T11:55:10.227Z,30.29
2018-08-03T11:57:39.785Z,30.73
2018-08-03T12:00:09.418Z,29.96
2018-08-03T12:02:39.183Z,28.74
2018-08-03T12:05:08.835Z,28.32
2018-08-03T12:07:38.555Z,28.13
2018-08-03T12:10:08.675Z,27.96
2018-08-03T12:12:38.727Z,27.91
2018-08-03T12:15:08.480Z,27.75
2018-08-03T12:17:38.326Z,26.18
2018-08-03T12:20:08.209Z,25.89
2018-08-03T12:22:37.803Z,28.21
2018-08-03T12:25:07.852Z,29.94
2018-08-03T12:27:37.703Z,30.19
2018-08-03T12:30:07.478Z,30.69
2018-08-03T12:32:37.530Z,30.97
2018-08-03T12:35:07.247Z,32.17
2018-08-03T12:37:36.918Z,32.04
2018-08-03T12:40:06.617Z,31.38
2018-08-03T12:42:36.430Z,30.24
2018-08-03T12:45:06.311Z,31.30
2018-08-03T12:47:36.411Z,30.34
2018-08-03T12:50:06.269Z,29.75
2018-08-03T12:52:36.201Z,28.56
2018-08-03T12:55:05.874Z,27.98
2018-08-03T12:57:36.042Z,27.21
2018-08-03T13:00:06.871Z,28.41
2018-08-03T13:02:36.686Z,29.23
2018-08-03T13:05:07.073Z,28.26
2018-08-03T13:07:37.092Z,28.07
2018-08-03T13:10:06.723Z,29.59
2018-08-03T13:12:36.825Z,30.31
2018-08-03T13:15:07.175Z,29.71
2018-08-03T13:17:37.115Z,29.86
2018-08-03T13:20:07.309Z,29.34
2018-08-03T13:22:37.165Z,30.23
2018-08-03T13:25:07.168Z,29.35
2018-08-03T13:27:37.208Z,28.87
2018-08-03T13:30:07.578Z,29.33
2018-08-03T13:32:37.439Z,29.68
2018-08-03T13:35:07.388Z,28.95
2018-08-03T13:37:37.124Z,28.46
2018-08-03T13:40:06.792Z,27.34
2018-08-03T13:42:36.590Z,29.14
2018-08-03T13:45:06.602Z,30.05
2018-08-03T13:47:36.694Z,29.94
2018-08-03T13:50:06.458Z,32.38
2018-08-03T13:52:36.113Z,32.76
2018-08-03T13:55:06.299Z,32.24
2018-08-03T13:57:36.173Z,32.66
2018-08-03T14:00:07.980Z,31.06
2018-08-03T14:02:37.940Z,28.81
2018-08-03T14:05:07.966Z,28.29
2018-08-03T14:07:37.592Z,27.83
2018-08-03T14:10:07.966Z,26.52
2018-08-03T14:12:37.647Z,26.99
2018-08-03T14:15:07.874Z,26.60
2018-08-03T14:17:37.784Z,26.77
2018-08-03T14:20:08.514Z,26.85
2018-08-03T14:22:38.474Z,26.26
2018-08-03T14:25:08.258Z,26.89
2018-08-03T14:27:37.867Z,25.99
2018-08-03T14:30:08.381Z,26.26
2018-08-03T14:32:38.043Z,26.20
2018-08-03T14:35:07.551Z,24.52
2018-08-03T14:37:37.159Z,23.71
2018-08-03T14:40:06.873Z,23.93
2018-08-03T14:42:36.635Z,23.28
2018-08-03T14:45:07.712Z,23.27
2018-08-03T14:47:37.633Z,22.66
2018-08-03T14:50:07.421Z,22.95
2018-08-03T14:52:37.179Z,22.25
2018-08-03T14:55:07.130Z,24.28
2018-08-03T14:57:37.608Z,24.76
2018-08-03T15:00:07.979Z,23.76
2018-08-03T15:02:37.668Z,24.25
2018-08-03T15:05:07.403Z,23.26
2018-08-03T15:07:37.113Z,22.71
2018-08-03T15:10:06.769Z,22.19
2018-08-03T15:12:36.848Z,21.91
2018-08-03T15:15:07.018Z,22.35
2018-08-03T15:17:37.247Z,21.92
2018-08-03T15:20:08.683Z,22.61
2018-08-03T15:22:38.361Z,22.68
2018-08-03T15:25:08.216Z,22.93
2018-08-03T15:27:38.212Z,22.14
2018-08-03T15:30:09.801Z,21.82
2018-08-03T15:32:39.515Z,21.86
2018-08-03T15:35:09.273Z,22.25
2018-08-03T15:37:38.795Z,22.89
2018-08-03T15:40:09.122Z,23.02
2018-08-03T15:42:38.830Z,22.94
2018-08-03T15:45:08.927Z,23.24
2018-08-03T15:47:38.727Z,23.11
2018-08-03T15:50:08.714Z,23.76
2018-08-03T15:52:38.553Z,23.08
2018-08-03T15:55:08.283Z,22.61
2018-08-03T15:57:38.289Z,22.83
2018-08-03T16:00:09.112Z,22.79
2018-08-03T16:02:38.852Z,22.66
2018-08-03T16:05:09.336Z,22.67
2018-08-03T16:07:38.887Z,22.88
2018-08-03T16:10:08.494Z,22.73
2018-08-03T16:12:38.218Z,22.45
2018-08-03T16:15:08.140Z,23.01
2018-08-03T16:17:38.043Z,22.67
2018-08-03T16:20:07.857Z,23.96
2018-08-03T16:22:37.744Z,23.54
2018-08-03T16:25:07.822Z,23.46
2018-08-03T16:27:38.011Z,24.23
2018-08-03T16:30:08.896Z,24.13
2018-08-03T16:32:38.815Z,24.47
2018-08-03T16:35:09.160Z,24.59
2018-08-03T16:37:38.735Z,24.76
2018-08-03T16:40:09.427Z,25.67
2018-08-03T16:42:39.427Z,24.97
2018-08-03T16:45:09.447Z,25.24
2018-08-03T16:47:39.465Z,25.99
2018-08-03T16:50:09.699Z,25.57
2018-08-03T16:52:39.611Z,25.11
2018-08-03T16:55:09.396Z,25.64
2018-08-03T16:57:39.290Z,25.56
2018-08-03T17:00:09.434Z,25.59
2018-08-03T17:02:39.627Z,25.45
2018-08-03T17:05:09.434Z,25.92
2018-08-03T17:07:39.762Z,26.77
2018-08-03T17:10:10.399Z,26.86
2018-08-03T17:12:40.902Z,27.30
2018-08-03T17:15:10.598Z,27.48
2018-08-03T17:17:41.135Z,28.67
2018-08-03T17:20:10.925Z,29.06
2018-08-03T17:22:40.517Z,29.27
2018-08-03T17:25:10.370Z,29.74
2018-08-03T17:27:40.025Z,30.07
2018-08-03T17:30:10.084Z,30.83
2018-08-03T17:32:39.766Z,31.70
2018-08-03T17:35:09.428Z,31.80
2018-08-03T17:37:39.191Z,32.65
2018-08-03T17:40:08.942Z,32.78
2018-08-03T17:42:38.858Z,33.88
2018-08-03T17:45:08.783Z,34.15
2018-08-03T17:47:38.441Z,35.46
2018-08-03T17:50:08.374Z,36.43
2018-08-03T17:52:38.045Z,36.71
2018-08-03T17:55:09.203Z,37.37
2018-08-03T17:57:38.879Z,38.35
2018-08-03T18:00:08.707Z,38.06
2018-08-03T18:02:38.475Z,38.67
2018-08-03T18:05:07.978Z,39.36
2018-08-03T18:07:37.666Z,40.26
2018-08-03T18:10:08.086Z,40.50
2018-08-03T18:12:37.965Z,40.96
2018-08-03T18:15:08.713Z,41.50
2018-08-03T18:17:38.323Z,41.52
2018-08-03T18:20:08.441Z,42.75
2018-08-03T18:22:37.989Z,42.66
2018-08-03T18:25:07.763Z,42.69
2018-08-03T18:27:37.619Z,43.37
2018-08-03T18:30:07.846Z,43.98
2018-08-03T18:32:37.643Z,44.54
2018-08-03T18:35:07.193Z,45.56
2018-08-03T18:37:37.354Z,45.38
2018-08-03T18:40:09.339Z,46.26
2018-08-03T18:42:39.422Z,46.41
2018-08-03T18:45:09.507Z,47.47
2018-08-03T18:47:39.223Z,47.28
2018-08-03T18:50:09.042Z,48.64
2018-08-03T18:52:38.736Z,50.12
2018-08-03T18:55:08.474Z,49.13
2018-08-03T18:57:38.296Z,49.50
2018-08-03T19:00:08.323Z,50.43
2018-08-03T19:02:37.990Z,49.78
2018-08-03T19:05:08.085Z,51.12
2018-08-03T19:07:38.109Z,50.96
2018-08-03T19:10:07.997Z,51.44
2018-08-03T19:12:37.762Z,51.23
2018-08-03T19:15:08.053Z,52.52
2018-08-03T19:17:37.894Z,51.74
2018-08-03T19:20:08.426Z,52.79
2018-08-03T19:22:38.052Z,52.18
2018-08-03T19:25:07.748Z,52.31
2018-08-03T19:27:37.674Z,52.55
2018-08-03T19:30:07.675Z,52.68
2018-08-03T19:32:37.202Z,52.81
2018-08-03T19:35:06.939Z,52.77
2018-08-03T19:37:36.969Z,52.78
2018-08-03T19:40:07.458Z,53.56
2018-08-03T19:42:37.435Z,54.25
2018-08-03T19:45:07.683Z,53.85
2018-08-03T19:47:37.464Z,54.10
2018-08-03T19:50:08.853Z,54.28
2018-08-03T19:52:38.570Z,54.36
2018-08-03T19:55:08.594Z,54.16
2018-08-03T19:57:38.160Z,54.64
2018-08-03T20:00:10.164Z,55.24
2018-08-03T20:02:40.155Z,55.41
2018-08-03T20:05:10.465Z,55.78
2018-08-03T20:07:40.418Z,55.00
2018-08-03T20:10:10.546Z,55.07
2018-08-03T20:12:40.450Z,56.20
2018-08-03T20:15:10.510Z,55.97
2018-08-03T20:17:40.556Z,53.94
2018-08-03T20:20:10.367Z,54.85
2018-08-03T20:22:40.011Z,55.60
2018-08-03T20:25:09.866Z,55.02
2018-08-03T20:27:39.663Z,55.94
2018-08-03T20:30:09.601Z,55.49
2018-08-03T20:32:39.242Z,55.80
2018-08-03T20:35:09.046Z,56.09
2018-08-03T20:37:38.938Z,56.14
2018-08-03T20:40:09.230Z,56.52
2018-08-03T20:42:39.132Z,55.92
2018-08-03T20:45:08.930Z,57.11
2018-08-03T20:47:38.623Z,57.38
2018-08-03T20:50:08.273Z,57.36
2018-08-03T20:52:37.935Z,57.60
2018-08-03T20:55:07.862Z,58.26
2018-08-03T20:57:37.644Z,57.26
2018-08-03T21:00:07.644Z,57.65
2018-08-03T21:02:37.230Z,57.63
2018-08-03T21:05:07.238Z,56.89
2018-08-03T21:07:37.002Z,57.58
2018-08-03T21:10:07.133Z,57.42
2018-08-03T21:12:36.936Z,57.01
2018-08-03T21:15:08.177Z,57.93
2018-08-03T21:17:37.847Z,57.04
2018-08-03T21:20:08.765Z,57.69
2018-08-03T21:22:38.742Z,57.57
2018-08-03T21:25:09.251Z,57.56
2018-08-03T21:27:44.995Z,57.88
2018-08-03T21:30:14.679Z,57.70
2018-08-03T21:32:44.139Z,56.72
2018-08-03T21:35:13.708Z,57.62
2018-08-03T21:37:43.434Z,57.19
2018-08-03T21:40:13.441Z,56.58
2018-08-03T21:42:43.150Z,57.64
2018-08-03T21:45:13.017Z,57.70
2018-08-03T21:47:42.946Z,57.96
2018-08-03T21:50:12.845Z,58.10
2018-08-03T21:52:42.906Z,58.38
2018-08-03T21:55:12.826Z,58.68
2018-08-03T21:57:42.472Z,59.21
2018-08-03T22:00:16.872Z,59.52
2018-08-03T22:02:46.422Z,59.97
2018-08-03T22:05:16.117Z,59.79
2018-08-03T22:07:46.334Z,60.23
2018-08-03T22:10:15.921Z,60.32
2018-08-03T22:12:45.956Z,60.03
2018-08-03T22:15:16.766Z,60.06
2018-08-03T22:17:46.435Z,60.66
2018-08-03T22:20:16.258Z,60.47
2018-08-03T22:22:46.320Z,60.60
2018-08-03T22:25:16.310Z,60.77
2018-08-03T22:27:46.046Z,60.73
2018-08-03T22:30:15.865Z,61.18
2018-08-03T22:32:45.657Z,60.82
2018-08-03T22:35:15.120Z,61.42
2018-08-03T22:37:44.909Z,61.13
2018-08-03T22:40:14.438Z,61.17
2018-08-03T22:42:44.468Z,61.49
2018-08-03T22:45:14.075Z,62.03
2018-08-03T22:47:43.844Z,62.83
2018-08-03T22:50:13.606Z,62.78
2018-08-03T22:52:43.421Z,63.25
2018-08-03T22:55:13.158Z,64.88
2018-08-03T22:57:42.810Z,65.22
2018-08-03T23:00:12.650Z,65.26
2018-08-03T23:02:42.326Z,65.01
2018-08-03T23:05:11.938Z,65.12
2018-08-03T23:07:41.449Z,65.08
2018-08-03T23:10:11.419Z,66.14
2018-08-03T23:12:41.364Z,66.85
2018-08-03T23:15:11.151Z,66.32
2018-08-03T23:17:40.924Z,66.47
2018-08-03T23:20:10.784Z,66.84
2018-08-03T23:22:40.505Z,65.87
2018-08-03T23:25:10.308Z,66.10
2018-08-03T23:27:39.984Z,67.32
2018-08-03T23:30:10.588Z,67.35
2018-08-03T23:32:40.546Z,69.26
2018-08-03T23:35:10.422Z,69.36
2018-08-03T23:37:39.956Z,69.69
2018-08-03T23:40:09.706Z,69.65
2018-08-03T23:42:39.465Z,70.08
2018-08-03T23:45:09.539Z,69.21
2018-08-03T23:47:39.151Z,68.15
2018-08-03T23:50:15.038Z,68.12
2018-08-03T23:52:45.582Z,68.42
2018-08-03T23:55:16.146Z,69.32
2018-08-03T23:57:46.371Z,70.23
